Ascutney, Vermont
Current Conditions -  °F | °C
As of 12:12 PM on Sunday 21 Dec 2014 (Local Time) from KVSF Reporting Station
Light Snow Light Snow  
Wind Chill: 28°   Ceiling: 4000
Heat Index: 28°   Visibility: 2mi
Dew Point: 25°   Wind: 0mph
Humidity: 88%   Direction: NA
Pressure: 30.31"   Gusts: NA
Location:  43.41°N, 72.41°W
Report Text: KVSF 211712Z AUTO 00000KT 2SM -SN BR OVC040 M02/M04 A3031 RMK AO2 P0000 T10221039 TSNO
Loading
Personal Weather Stations






























Interactive Weather Map New forecast layout! Learn more

10-Day Weather Forecast

Advertisements
Track Severe Weather on mobile